Vitry en Artois Airfield

METAR LFQQ TAF LFQQ
4 °C
°C
-
°C
7m
Âge
12:07:11
LT
11:07
UTC
0 ft

1.000

2.000

3.000

4.000

5.000

VFR
<?= Yii::t('app', 'Wind direction') ?> <?= Yii::t('app', 'of'); ?>
060°
17:49
Coucher de soleil
70%
Humidité
Cisaillement du vent
Fermé/neige
Portée visuelle RWY
Condition RWY
Visibilité vert.
Visibilité min.
CAVOK
Tendance
Correction
Rapport spécial
1039 hPa
QNH
METAR LFQQ 071100Z AUTO 06005KT CAVOK 04/M01 Q1039 NOSIG
Aucun nuage
4 kt
4 kt
12:00
MVFR
5 kt
13:00
MVFR
5 kt
14:00
MVFR
5 kt
15:00
MVFR
5 kt
16:00
MVFR
5 kt
17:00
MVFR
5 kt
18:00
MVFR
5 kt
10 km+
Vue
Non
Base cloud
5 kt
Vent
metar-taf.com/LFQS

Metar-Taf.com

Décodeur visuel

Nous et des tiers suivons ton comportement Internet sur notre site Web à l'aide de cookies. Si tu continues, nous supposons que tu es d'accord avec notre Politique en matière de cookies.